NCAR-RAP Real-Time Weather Data

Output produced by METARs form (24 April 2018  16:20 UTC)
found at http://weather.rap.ucar.edu/surface/
 
RJEB 240700Z VRB02KT 9999 FEW050 BKN/// 11/02 Q1016
RJEB 240600Z 07007KT 030V100 9999 FEW050 BKN/// 11/01 Q1016
RJEB 240500Z 07006KT 020V120 9999 FEW050 BKN/// 10/01 Q1017
RJEB 240400Z 03006KT 330V090 9999 FEW050 SCT/// 12/M01 Q1017
RJEB 240300Z 08006KT 040V110 9999 FEW050 BKN/// 12/M01 Q1017
RJEB 240200Z 06005KT 020V100 CAVOK 11/01 Q1019
RJEB 240100Z 06004KT 010V090 CAVOK 11/03 Q1019
RJEB 240000Z 06004KT 010V090 CAVOK 10/03 Q1020
RJEB 230700Z 09004KT 040V140 9999 FEW050 08/M03 Q1024
RJEB 230600Z 11003KT 030V200 9999 FEW050 08/M01 Q1025
RJEB 230500Z 03005KT 340V060 9999 FEW060 07/M01 Q1025
RJEB 230400Z 02004KT 320V100 9999 FEW050 07/01 Q1025
RJEB 230300Z 03005KT 350V060 9999 FEW050 08/M00 Q1025
RJEB 230200Z 36007KT 320V040 9999 FEW040 08/M02 Q1025
RJEB 230100Z 36008KT 9999 FEW050 09/M00 Q1026
RJEB 230000Z 36010KT 9999 FEW040 08/01 Q1025
RJEB 220700Z 08005KT 050V140 9999 FEW006 BKN009 04/01 Q1022
RJEB 220600Z 09006KT 050V130 9999 FEW006 BKN008 03/00 Q1022
RJEB 220521Z 07006KT 040V110 9999 FEW006 BKN008 04/00 Q1022 RMK 1ST006 5ST008 A3018
RJEB 220500Z 07006KT 040V120 9999 FEW010 SCT060 04/M00 Q1021